createdAt,value
2024-04-09T00:00:20.535Z,98.20
2024-04-09T00:02:50.952Z,98.29
2024-04-09T00:05:18.065Z,98.39
2024-04-09T00:07:45.108Z,98.96
2024-04-09T00:10:15.332Z,98.61
2024-04-09T00:12:48.268Z,99.41
2024-04-09T00:15:15.643Z,100.00
2024-04-09T00:17:56.570Z,99.97
2024-04-09T00:20:31.206Z,100.00
2024-04-09T00:23:00.975Z,100.00
2024-04-09T00:25:32.652Z,100.00
2024-04-09T00:28:00.957Z,100.00
2024-04-09T00:32:57.787Z,100.00
2024-04-09T00:35:28.595Z,100.00
2024-04-09T00:37:58.103Z,100.00
2024-04-09T00:40:31.431Z,100.00
2024-04-09T00:43:01.746Z,100.00
2024-04-09T00:45:30.829Z,100.00
2024-04-09T00:48:01.940Z,100.00
2024-04-09T00:50:30.977Z,100.00
2024-04-09T00:53:01.849Z,100.00
2024-04-09T00:55:33.722Z,100.00
2024-04-09T00:58:07.478Z,100.00
2024-04-09T01:00:35.136Z,100.00
2024-04-09T01:03:03.221Z,100.00
2024-04-09T01:05:31.610Z,100.00
2024-04-09T01:07:58.780Z,100.00
2024-04-09T01:10:26.008Z,100.00
2024-04-09T01:12:53.482Z,100.00
2024-04-09T01:15:25.688Z,100.00
2024-04-09T01:17:55.300Z,100.00
2024-04-09T01:20:25.719Z,100.00
2024-04-09T01:22:52.889Z,100.00
2024-04-09T01:25:21.732Z,100.00
2024-04-09T01:27:49.229Z,100.00
2024-04-09T01:30:16.470Z,100.00
2024-04-09T01:32:45.869Z,100.00
2024-04-09T01:35:15.665Z,100.00
2024-04-09T01:37:45.213Z,100.00
2024-04-09T01:40:13.943Z,100.00
2024-04-09T01:42:43.433Z,100.00
2024-04-09T01:45:10.668Z,100.00
2024-04-09T01:47:40.488Z,100.00
2024-04-09T01:50:11.342Z,100.00
2024-04-09T01:52:38.913Z,100.00
2024-04-09T01:55:06.877Z,100.00
2024-04-09T01:57:37.336Z,100.00
2024-04-09T02:00:13.158Z,100.00
2024-04-09T02:02:45.716Z,100.00
2024-04-09T02:05:15.644Z,100.00
2024-04-09T02:07:44.922Z,100.00
2024-04-09T02:10:13.124Z,100.00
2024-04-09T02:12:41.462Z,100.00
2024-04-09T02:15:09.295Z,100.00
2024-04-09T02:17:36.915Z,100.00
2024-04-09T02:20:11.649Z,100.00
2024-04-09T02:22:39.069Z,100.00
2024-04-09T02:25:06.800Z,100.00
2024-04-09T02:27:34.589Z,100.00
2024-04-09T02:30:04.471Z,100.00
2024-04-09T02:32:35.234Z,100.00
2024-04-09T02:35:05.822Z,100.00
2024-04-09T02:37:33.721Z,100.00
2024-04-09T02:40:01.446Z,100.00
2024-04-09T02:42:29.044Z,100.00
2024-04-09T02:44:56.118Z,100.00
2024-04-09T02:47:24.649Z,100.00
2024-04-09T02:49:54.761Z,100.00
2024-04-09T02:52:22.315Z,100.00
2024-04-09T02:54:55.061Z,100.00
2024-04-09T02:57:24.462Z,100.00
2024-04-09T02:59:55.153Z,100.00
2024-04-09T03:02:22.714Z,100.00
2024-04-09T03:04:55.062Z,100.00
2024-04-09T03:07:22.459Z,100.00
2024-04-09T03:09:52.726Z,100.00
2024-04-09T03:12:24.943Z,100.00
2024-04-09T03:14:52.659Z,100.00
2024-04-09T03:17:20.081Z,100.00
2024-04-09T03:19:53.313Z,100.00
2024-04-09T03:22:20.566Z,100.00
2024-04-09T03:24:51.006Z,100.00
2024-04-09T03:27:20.400Z,100.00
2024-04-09T03:29:53.333Z,100.00
2024-04-09T03:32:21.365Z,100.00
2024-04-09T03:34:51.175Z,100.00
2024-04-09T03:37:18.505Z,100.00
2024-04-09T03:39:45.727Z,100.00
2024-04-09T03:42:12.975Z,100.00
2024-04-09T03:44:40.216Z,100.00
2024-04-09T03:47:07.504Z,100.00
2024-04-09T03:49:38.535Z,100.00
2024-04-09T03:52:09.233Z,100.00
2024-04-09T03:54:39.756Z,100.00
2024-04-09T03:57:07.048Z,100.00
2024-04-09T03:59:38.240Z,100.00
2024-04-09T04:02:05.636Z,100.00
2024-04-09T04:04:33.053Z,100.00
2024-04-09T04:07:02.698Z,100.00
2024-04-09T04:09:29.957Z,100.00
2024-04-09T04:11:57.183Z,100.00
2024-04-09T04:14:26.725Z,100.00
2024-04-09T04:16:54.895Z,100.00
2024-04-09T04:19:24.334Z,100.00
2024-04-09T04:21:51.700Z,100.00
2024-04-09T04:24:19.323Z,100.00
2024-04-09T04:26:48.630Z,100.00
2024-04-09T04:29:15.828Z,100.00
2024-04-09T04:31:42.996Z,100.00
2024-04-09T04:34:12.475Z,100.00
2024-04-09T04:36:48.276Z,100.00
2024-04-09T04:39:16.379Z,100.00
2024-04-09T04:41:43.906Z,100.00
2024-04-09T04:44:11.705Z,100.00
2024-04-09T04:46:41.190Z,100.00
2024-04-09T04:49:08.494Z,100.00
2024-04-09T04:51:35.619Z,100.00
2024-04-09T04:54:02.849Z,100.00
2024-04-09T04:56:31.528Z,100.00
2024-04-09T04:58:58.661Z,100.00
2024-04-09T05:01:28.129Z,100.00
2024-04-09T05:03:55.767Z,100.00
2024-04-09T05:06:23.037Z,100.00
2024-04-09T05:08:50.190Z,100.00
2024-04-09T05:11:18.251Z,100.00
2024-04-09T05:13:46.080Z,100.00
2024-04-09T05:16:13.250Z,100.00
2024-04-09T05:18:40.623Z,100.00
2024-04-09T05:21:10.304Z,99.65
2024-04-09T05:23:38.267Z,99.82
2024-04-09T05:26:05.496Z,100.00
2024-04-09T05:28:32.733Z,100.00
2024-04-09T05:31:00.016Z,100.00
2024-04-09T05:33:27.370Z,100.00
2024-04-09T05:35:54.512Z,100.00
2024-04-09T05:38:21.717Z,100.00
2024-04-09T05:40:58.125Z,99.65
2024-04-09T05:43:30.263Z,97.40
2024-04-09T05:46:06.835Z,98.29
2024-04-09T05:48:34.232Z,97.72
2024-04-09T05:51:01.516Z,96.71
2024-04-09T05:53:28.999Z,96.79
2024-04-09T05:55:57.650Z,95.38
2024-04-09T05:58:29.352Z,95.46
2024-04-09T06:00:57.692Z,94.98
2024-04-09T06:03:25.388Z,93.39
2024-04-09T06:05:57.188Z,92.35
2024-04-09T06:08:29.623Z,93.92
2024-04-09T06:10:59.331Z,94.91
2024-04-09T06:13:29.573Z,94.69
2024-04-09T06:15:56.940Z,94.06
2024-04-09T06:18:27.631Z,93.14
2024-04-09T06:20:55.203Z,94.40
2024-04-09T06:23:23.146Z,94.02
2024-04-09T06:25:57.163Z,93.50
2024-04-09T06:28:26.760Z,94.43
2024-04-09T06:30:54.187Z,93.90
2024-04-09T06:33:22.183Z,93.70
2024-04-09T06:35:49.923Z,93.81
2024-04-09T06:38:21.059Z,94.30
2024-04-09T06:40:49.073Z,94.72
2024-04-09T06:43:16.391Z,97.30
2024-04-09T06:45:46.238Z,100.00
2024-04-09T06:48:13.703Z,100.00
2024-04-09T06:50:43.345Z,100.00
2024-04-09T06:53:13.245Z,98.72
2024-04-09T06:55:40.482Z,96.43
2024-04-09T06:58:10.243Z,93.28
2024-04-09T07:00:42.222Z,93.13
2024-04-09T07:03:09.533Z,92.55
2024-04-09T07:05:39.375Z,92.75
2024-04-09T07:08:07.701Z,92.55
2024-04-09T07:10:38.015Z,90.87
2024-04-09T07:13:08.306Z,89.03
2024-04-09T07:15:35.658Z,86.69
2024-04-09T07:18:05.144Z,85.98
2024-04-09T07:20:34.873Z,82.62
2024-04-09T07:23:03.712Z,81.80
2024-04-09T07:25:32.718Z,81.69
2024-04-09T07:27:59.822Z,80.46
2024-04-09T07:30:27.079Z,79.45
2024-04-09T07:32:56.654Z,76.44
2024-04-09T07:35:24.186Z,76.59
2024-04-09T07:37:53.802Z,73.70
2024-04-09T07:40:21.282Z,72.25
2024-04-09T07:42:48.604Z,71.53
2024-04-09T07:45:15.991Z,67.36
2024-04-09T07:47:43.226Z,65.26
2024-04-09T07:50:17.595Z,65.15
2024-04-09T07:52:49.469Z,65.25
2024-04-09T07:55:16.912Z,64.28
2024-04-09T07:57:44.602Z,63.88
2024-04-09T08:00:21.528Z,63.31
2024-04-09T08:02:51.840Z,63.51
2024-04-09T08:05:19.523Z,61.53
2024-04-09T08:07:47.024Z,60.58
2024-04-09T08:10:15.110Z,60.94
2024-04-09T08:12:56.712Z,60.07
2024-04-09T08:15:24.308Z,60.41
2024-04-09T08:17:51.890Z,61.19
2024-04-09T08:20:19.913Z,60.83
2024-04-09T08:22:50.811Z,62.18
2024-04-09T08:25:20.172Z,61.02
2024-04-09T08:27:47.999Z,60.05
2024-04-09T08:30:20.035Z,59.31
2024-04-09T08:32:48.002Z,58.54
2024-04-09T08:35:15.075Z,58.33
2024-04-09T08:37:46.434Z,57.21
2024-04-09T08:40:19.547Z,57.08
2024-04-09T08:42:48.312Z,56.52
2024-04-09T08:45:20.700Z,55.74
2024-04-09T08:47:50.585Z,54.48
2024-04-09T08:50:18.532Z,51.72
2024-04-09T08:52:47.101Z,48.81
2024-04-09T08:55:21.150Z,46.29
2024-04-09T08:57:52.070Z,45.16
2024-04-09T09:00:20.190Z,44.52
2024-04-09T09:02:47.556Z,43.81
2024-04-09T09:05:24.397Z,43.62
2024-04-09T09:08:05.827Z,42.18
2024-04-09T09:10:35.231Z,42.80
2024-04-09T09:13:06.006Z,41.29
2024-04-09T09:15:34.523Z,42.79
2024-04-09T09:18:06.227Z,43.47
2024-04-09T09:20:36.196Z,44.90
2024-04-09T09:23:05.915Z,46.93
2024-04-09T09:25:33.496Z,45.91
2024-04-09T09:28:10.107Z,48.50
2024-04-09T09:30:43.141Z,50.71
2024-04-09T09:33:23.414Z,49.77
2024-04-09T09:35:52.467Z,49.74
2024-04-09T09:38:22.192Z,48.99
2024-04-09T09:40:51.948Z,49.35
2024-04-09T09:43:21.949Z,46.32
2024-04-09T09:45:49.828Z,44.53
2024-04-09T09:48:27.557Z,43.58
2024-04-09T09:50:55.606Z,46.82
2024-04-09T09:53:23.683Z,47.47
2024-04-09T09:55:56.804Z,49.30
2024-04-09T09:58:32.553Z,52.11
2024-04-09T10:01:06.208Z,52.17
2024-04-09T10:03:36.640Z,53.37
2024-04-09T10:06:04.658Z,53.23
2024-04-09T10:08:32.255Z,52.77
2024-04-09T10:10:59.431Z,53.04
2024-04-09T10:13:29.551Z,52.77
2024-04-09T10:15:58.701Z,51.70
2024-04-09T10:18:30.156Z,50.41
2024-04-09T10:20:59.853Z,50.88
2024-04-09T10:23:31.805Z,51.68
2024-04-09T10:25:59.349Z,51.83
2024-04-09T10:28:34.442Z,54.73
2024-04-09T10:31:10.964Z,57.52
2024-04-09T10:33:41.489Z,57.65
2024-04-09T10:36:13.571Z,58.01
2024-04-09T10:38:45.945Z,58.07
2024-04-09T10:41:16.689Z,59.19
2024-04-09T10:43:47.531Z,60.17
2024-04-09T10:46:16.131Z,62.51
2024-04-09T10:48:46.848Z,64.05
2024-04-09T10:51:19.863Z,65.53
2024-04-09T10:53:48.950Z,66.49
2024-04-09T10:56:16.227Z,67.77
2024-04-09T10:58:46.101Z,67.06
2024-04-09T11:01:17.172Z,68.06
2024-04-09T11:03:46.182Z,68.75
2024-04-09T11:06:17.504Z,67.80
2024-04-09T11:08:47.422Z,68.66
2024-04-09T11:11:15.552Z,70.68
2024-04-09T11:13:44.832Z,70.18
2024-04-09T11:16:22.408Z,70.26
2024-04-09T11:19:07.149Z,69.58
2024-04-09T11:21:35.314Z,68.83
2024-04-09T11:24:05.859Z,70.14
2024-04-09T11:26:35.652Z,69.59
2024-04-09T11:29:02.804Z,69.89
2024-04-09T11:31:33.953Z,68.79
2024-04-09T11:34:06.965Z,68.91
2024-04-09T11:36:39.687Z,68.72
2024-04-09T11:39:07.544Z,67.94
2024-04-09T11:41:34.882Z,66.00
2024-04-09T11:44:02.238Z,66.46
2024-04-09T11:46:29.426Z,65.34
2024-04-09T11:49:01.800Z,61.76
2024-04-09T11:51:31.568Z,58.98
2024-04-09T11:53:59.023Z,59.85
2024-04-09T11:56:26.243Z,58.75
2024-04-09T11:58:53.491Z,57.95
2024-04-09T12:01:21.619Z,58.08
2024-04-09T12:03:48.881Z,57.98
2024-04-09T12:06:16.085Z,59.21
2024-04-09T12:08:47.227Z,59.26
2024-04-09T12:11:22.200Z,61.40
2024-04-09T12:13:49.655Z,60.78
2024-04-09T12:16:17.511Z,60.92
2024-04-09T12:18:44.964Z,62.78
2024-04-09T12:21:12.599Z,62.98
2024-04-09T12:23:39.793Z,64.16
2024-04-09T12:26:07.064Z,64.83
2024-04-09T12:28:34.301Z,65.92
2024-04-09T12:31:01.542Z,66.56
2024-04-09T12:33:33.104Z,66.65
2024-04-09T12:36:03.536Z,67.00
2024-04-09T12:38:33.753Z,66.32
2024-04-09T12:41:01.129Z,66.64
2024-04-09T12:43:28.364Z,65.97
2024-04-09T12:45:55.707Z,65.06
2024-04-09T12:48:23.754Z,65.01
2024-04-09T12:50:53.469Z,64.59
2024-04-09T12:53:20.647Z,64.00
2024-04-09T12:55:49.228Z,64.11
2024-04-09T12:58:19.234Z,65.00
2024-04-09T13:01:01.790Z,65.15
2024-04-09T13:03:37.758Z,67.70
2024-04-09T13:06:05.730Z,67.89
2024-04-09T13:08:35.833Z,66.42
2024-04-09T13:11:03.563Z,67.57
2024-04-09T13:13:35.723Z,67.52
2024-04-09T13:18:34.285Z,67.34
2024-04-09T13:21:01.989Z,67.46
2024-04-09T13:23:31.987Z,68.44
2024-04-09T13:26:01.895Z,70.77
2024-04-09T13:28:30.431Z,73.15
2024-04-09T13:30:58.383Z,73.34
2024-04-09T13:33:25.653Z,73.53
2024-04-09T13:35:52.869Z,75.04
2024-04-09T13:38:25.717Z,80.06
2024-04-09T13:40:53.037Z,81.42
2024-04-09T13:43:23.103Z,81.67
2024-04-09T13:45:54.437Z,85.54
2024-04-09T13:48:22.581Z,87.79
2024-04-09T13:50:55.408Z,88.34
2024-04-09T13:53:23.495Z,89.84
2024-04-09T13:55:50.722Z,90.01
2024-04-09T13:58:18.133Z,91.21
2024-04-09T14:00:46.735Z,89.81
2024-04-09T14:03:16.426Z,90.95
2024-04-09T14:05:44.797Z,90.61
2024-04-09T14:08:12.385Z,92.29
2024-04-09T14:10:45.713Z,92.25
2024-04-09T14:13:13.752Z,90.10
2024-04-09T14:15:45.796Z,86.02
2024-04-09T14:18:17.407Z,83.84
2024-04-09T14:20:52.247Z,84.07
2024-04-09T14:23:20.824Z,84.12
2024-04-09T14:25:48.750Z,84.30
2024-04-09T14:28:15.985Z,86.02
2024-04-09T14:30:46.838Z,84.99
2024-04-09T14:33:18.026Z,85.73
2024-04-09T14:35:45.428Z,85.15
2024-04-09T14:38:12.724Z,84.81
2024-04-09T14:40:39.827Z,83.80
2024-04-09T14:43:07.794Z,84.33
2024-04-09T14:45:35.001Z,84.56
2024-04-09T14:48:03.834Z,85.47
2024-04-09T14:50:32.906Z,85.79
2024-04-09T14:53:03.300Z,85.33
2024-04-09T14:55:33.068Z,86.03
2024-04-09T14:58:00.408Z,85.97
2024-04-09T15:00:29.820Z,85.90
2024-04-09T15:02:57.145Z,87.76
2024-04-09T15:05:24.327Z,88.23
2024-04-09T15:07:51.526Z,87.72
2024-04-09T15:10:29.225Z,87.85
2024-04-09T15:12:59.250Z,87.43
2024-04-09T15:15:26.502Z,86.63
2024-04-09T15:17:56.372Z,86.36
2024-04-09T15:20:25.754Z,86.21
2024-04-09T15:22:52.887Z,86.22
2024-04-09T15:25:20.834Z,86.63
2024-04-09T15:27:48.333Z,88.87
2024-04-09T15:30:20.113Z,87.46
2024-04-09T15:32:50.583Z,87.51
2024-04-09T15:35:20.981Z,88.23
2024-04-09T15:37:53.642Z,86.06
2024-04-09T15:40:26.771Z,87.51
2024-04-09T15:42:53.975Z,86.94
2024-04-09T15:45:23.861Z,88.80
2024-04-09T15:47:53.728Z,87.28
2024-04-09T15:50:21.156Z,89.53
2024-04-09T15:52:50.901Z,87.33
2024-04-09T15:55:20.498Z,87.89
2024-04-09T15:57:47.966Z,88.22
2024-04-09T16:00:16.559Z,87.86
2024-04-09T16:02:46.567Z,88.36
2024-04-09T16:05:16.628Z,87.08
2024-04-09T16:07:47.095Z,87.14
2024-04-09T16:10:16.890Z,85.26
2024-04-09T16:12:47.462Z,85.23
2024-04-09T16:15:17.328Z,84.54
2024-04-09T16:17:45.496Z,84.80
2024-04-09T16:20:13.308Z,86.04
2024-04-09T16:22:40.562Z,85.33
2024-04-09T16:25:10.332Z,87.16
2024-04-09T16:27:39.577Z,86.03
2024-04-09T16:30:08.252Z,86.85
2024-04-09T16:32:36.986Z,85.56
2024-04-09T16:35:04.708Z,86.49
2024-04-09T16:37:31.932Z,86.61
2024-04-09T16:39:59.066Z,85.14
2024-04-09T16:42:28.407Z,87.35
2024-04-09T16:44:55.577Z,87.51
2024-04-09T16:47:25.302Z,85.86
2024-04-09T16:49:55.413Z,85.38
2024-04-09T16:52:23.995Z,85.40
2024-04-09T16:54:53.859Z,85.57
2024-04-09T16:57:33.364Z,86.61
2024-04-09T17:00:18.156Z,86.10
2024-04-09T17:02:52.139Z,84.37
2024-04-09T17:05:22.475Z,85.82
2024-04-09T17:07:54.476Z,85.35
2024-04-09T17:10:27.884Z,84.72
2024-04-09T17:12:55.065Z,85.16
2024-04-09T17:15:22.757Z,84.71
2024-04-09T17:17:51.276Z,84.53
2024-04-09T17:20:22.196Z,82.79
2024-04-09T17:22:49.463Z,83.85
2024-04-09T17:25:18.483Z,84.51
2024-04-09T17:27:47.258Z,84.53
2024-04-09T17:30:15.067Z,85.39
2024-04-09T17:32:45.412Z,85.18
2024-04-09T17:35:13.337Z,84.43
2024-04-09T17:37:40.843Z,86.21
2024-04-09T17:40:09.538Z,85.57
2024-04-09T17:42:38.883Z,85.12
2024-04-09T17:45:10.399Z,84.40
2024-04-09T17:47:40.119Z,85.99
2024-04-09T17:50:11.408Z,87.37
2024-04-09T17:52:43.690Z,86.27
2024-04-09T17:55:15.281Z,86.57
2024-04-09T17:57:46.631Z,86.53
2024-04-09T18:00:16.389Z,84.92
2024-04-09T18:02:43.756Z,85.41
2024-04-09T18:05:11.451Z,85.57
2024-04-09T18:07:38.865Z,84.46
2024-04-09T18:10:06.857Z,85.93
2024-04-09T18:12:34.218Z,85.34
2024-04-09T18:15:01.285Z,84.60
2024-04-09T18:17:30.021Z,83.76
2024-04-09T18:19:57.688Z,84.37
2024-04-09T18:22:25.318Z,85.03
2024-04-09T18:24:53.368Z,85.02
2024-04-09T18:27:20.837Z,85.52
2024-04-09T18:29:50.139Z,84.60
2024-04-09T18:32:19.987Z,83.75
2024-04-09T18:34:47.271Z,82.96
2024-04-09T18:37:14.456Z,82.31
2024-04-09T18:39:44.981Z,82.79
2024-04-09T18:42:15.401Z,82.92
2024-04-09T18:44:42.786Z,82.33
2024-04-09T18:47:16.005Z,83.47
2024-04-09T18:49:47.880Z,83.42
2024-04-09T18:52:15.131Z,83.36
2024-04-09T18:54:42.410Z,83.14
2024-04-09T18:57:11.723Z,83.78
2024-04-09T18:59:41.432Z,82.59
2024-04-09T19:02:08.774Z,83.29
2024-04-09T19:04:37.329Z,83.87
2024-04-09T19:07:07.219Z,82.63
2024-04-09T19:09:40.422Z,82.48
2024-04-09T19:12:10.345Z,81.40
2024-04-09T19:14:38.782Z,81.60
2024-04-09T19:17:06.231Z,82.94
2024-04-09T19:19:36.694Z,82.22
2024-04-09T19:22:04.471Z,80.26
2024-04-09T19:24:34.033Z,79.94
2024-04-09T19:27:01.715Z,79.70
2024-04-09T19:29:31.168Z,79.90
2024-04-09T19:32:04.281Z,80.77
2024-04-09T19:34:34.086Z,79.16
2024-04-09T19:37:04.174Z,79.23
2024-04-09T19:39:31.369Z,78.74
2024-04-09T19:41:58.534Z,78.40
2024-04-09T19:44:26.215Z,77.64
2024-04-09T19:46:54.997Z,77.95
2024-04-09T19:49:23.629Z,76.40
2024-04-09T19:51:51.343Z,76.28
2024-04-09T19:54:19.056Z,75.96
2024-04-09T19:56:46.463Z,74.48
2024-04-09T19:59:13.975Z,73.85
2024-04-09T20:01:43.881Z,73.43
2024-04-09T20:04:11.614Z,72.47
2024-04-09T20:06:39.537Z,70.90
2024-04-09T20:09:10.765Z,70.69
2024-04-09T20:11:38.294Z,69.12
2024-04-09T20:14:06.091Z,68.82
2024-04-09T20:16:33.358Z,68.37
2024-04-09T20:19:01.212Z,68.26
2024-04-09T20:21:28.385Z,68.52
2024-04-09T20:23:55.569Z,67.46
2024-04-09T20:26:23.669Z,67.06
2024-04-09T20:28:51.592Z,66.34
2024-04-09T20:31:18.824Z,67.43
2024-04-09T20:33:49.812Z,67.03
2024-04-09T20:36:19.628Z,66.19
2024-04-09T20:38:47.022Z,66.18
2024-04-09T20:41:14.343Z,66.90
2024-04-09T20:43:42.215Z,65.57
2024-04-09T20:46:11.589Z,65.86
2024-04-09T20:48:38.928Z,65.94
2024-04-09T20:51:07.444Z,67.71
2024-04-09T20:53:35.177Z,66.91
2024-04-09T20:56:09.404Z,66.45
2024-04-09T20:58:38.933Z,65.18
2024-04-09T21:01:09.322Z,65.85
2024-04-09T21:03:36.722Z,65.34
2024-04-09T21:06:06.808Z,66.37
2024-04-09T21:08:34.075Z,66.97
2024-04-09T21:11:01.619Z,66.02
2024-04-09T21:13:28.730Z,65.59
2024-04-09T21:15:56.002Z,64.71
2024-04-09T21:18:25.135Z,65.00
2024-04-09T21:20:52.333Z,64.81
2024-04-09T21:23:19.680Z,64.69
2024-04-09T21:25:47.074Z,63.79
2024-04-09T21:28:19.087Z,63.49
2024-04-09T21:30:46.611Z,63.47
2024-04-09T21:33:15.317Z,62.88
2024-04-09T21:35:42.472Z,62.19
2024-04-09T21:38:09.790Z,62.46
2024-04-09T21:40:36.994Z,62.28
2024-04-09T21:43:07.458Z,62.90
2024-04-09T21:45:34.690Z,62.13
2024-04-09T21:48:02.051Z,62.50
2024-04-09T21:50:32.627Z,62.80
2024-04-09T21:52:59.882Z,62.35
2024-04-09T21:55:27.031Z,61.43
2024-04-09T21:57:54.235Z,62.32
2024-04-09T22:00:21.945Z,62.21
2024-04-09T22:02:52.171Z,62.10
2024-04-09T22:05:21.952Z,61.70
2024-04-09T22:07:50.022Z,63.45
2024-04-09T22:10:18.204Z,64.09
2024-04-09T22:12:49.008Z,63.03
2024-04-09T22:15:16.381Z,63.75
2024-04-09T22:17:47.331Z,64.32
2024-04-09T22:20:14.784Z,65.59
2024-04-09T22:22:42.017Z,65.97
2024-04-09T22:25:09.231Z,65.73
2024-04-09T22:27:44.657Z,66.85
2024-04-09T22:30:12.208Z,65.99
2024-04-09T22:32:41.337Z,66.64
2024-04-09T22:35:11.272Z,67.97
2024-04-09T22:37:38.582Z,68.97
2024-04-09T22:40:06.577Z,69.62
2024-04-09T22:42:35.709Z,69.88
2024-04-09T22:45:04.012Z,70.02
2024-04-09T22:47:34.665Z,69.68
2024-04-09T22:50:06.756Z,71.06
2024-04-09T22:52:34.042Z,71.38
2024-04-09T22:55:01.247Z,71.22
2024-04-09T22:57:28.446Z,71.33
2024-04-09T22:59:58.216Z,71.02
2024-04-09T23:02:28.285Z,70.93
2024-04-09T23:04:55.653Z,72.37
2024-04-09T23:07:22.760Z,72.48
2024-04-09T23:09:55.407Z,72.93
2024-04-09T23:12:23.168Z,74.70
2024-04-09T23:14:51.402Z,74.23
2024-04-09T23:17:18.961Z,73.52
2024-04-09T23:19:46.282Z,74.85
2024-04-09T23:22:15.517Z,75.29
2024-04-09T23:24:42.686Z,75.74
2024-04-09T23:27:10.469Z,77.32
2024-04-09T23:29:37.962Z,77.41
2024-04-09T23:32:05.233Z,76.41
2024-04-09T23:34:32.423Z,78.31
2024-04-09T23:37:01.701Z,77.15
2024-04-09T23:39:32.230Z,76.14
2024-04-09T23:42:05.972Z,76.09
2024-04-09T23:44:34.341Z,75.59
2024-04-09T23:47:03.003Z,77.60
2024-04-09T23:49:31.073Z,78.27
2024-04-09T23:52:00.858Z,77.42
2024-04-09T23:54:32.666Z,77.06
2024-04-09T23:57:00.030Z,77.53
2024-04-09T23:59:27.336Z,77.32
